Philip, SD

2:56 AM MDT on September 17, 2014 (GMT -0600)
Faith | Change Station
CLOSE
Current Station
Airport
Location: Faith,
Elevation: 2582 ft
Nearby Weather Stations

Elev 2582 ft 45.03 °N, 102.02 °W | Updated 1 hour ago

Clear
Clear
58 °F
Feels Like 58 °F
N
4
Wind Variable Wind from ENE
Gusts 6 mph

Today
High -- | Low -- °F
--% Chance of Precip.
Yesterday
High -- | Low -- °F
Precip. -- in
6:28 AM 6:53 PM
Last Quarter, 38% visible
Pressure 29.89 in
Visibility -9999.0 miles
Clouds
Dew Point 50 °F
Humidity 75%
Rainfall 0.00 in
Snow Depth Not available.
UV Not available.
Pollen 5.80 out of 12
Air Quality Not available.
Flu Activity Not available.
METAR KD07 170756Z AUTO 06003KT 14/10 A2992 RMK AO1 SLP122 T01440100

More Conditions Fewer Conditions

Pressure 29.89 in
Visibility -9999.0 miles
Clouds
Dew Point 50 °F
Humidity 75%
Rainfall 0.00 in
Snow Depth Not available.
UV Not available.
Pollen 5.80 out of 12
Air Quality Not available.
Flu Activity Not available.
METAR KD07 170756Z AUTO 06003KT 14/10 A2992 RMK AO1 SLP122 T01440100

More Conditions Fewer Conditions

10-Day Weather Forecast

Almanac

Astronomy

Sep. 17, 2014 Rise Set
Actual Time 6:28 AM MDT 6:53 PM MDT
Civil Twilight 5:59 AM MDT 7:22 PM MDT
Nautical Twilight 5:25 AM MDT 7:56 PM MDT
Astronomical Twilight 4:49 AM MDT 8:31 PM MDT
Moon 12:20 AM MDT 3:12 PM MDT
Length of Visible Light 13h 22m
Length of Day
12h 25m
Tomorrow will be 2m 59s shorter.
Last Quarter, 38% of the Moon is Illuminated
Today
Last Quarter
Sep 24
New
Oct 1
First Quarter
Oct 8
Full
Oct 15
Last Quarter

Today's Extremes

State Highs State Lows

Community

WunderPhotos

Upload Photos

1,753,990 photos uploaded!

Nearby

Snow Depth

Station Depth Elevation
Blind Park 0 in 6890 ft

Earthquake Activity

City Distance Mag. Time & Date
No recent earthquake activity has been reported nearby.
Minimum magnitude displayed is 2.5.

Coastal Water Temperatures

Place Temperature
No Stations Reporting

Nearby Weather Stations